Jenkins, Texas
Current Conditions -  °F | °C
As of 4:15 PM on Sunday 25 Jan 2015 (Local Time) from KOSA Reporting Station
Clear Clear  
Wind Chill: 62°   Ceiling: Unl
Heat Index: 62°   Visibility: 10mi
Dew Point: 28°   Wind: 22mph
Humidity: 28%   Direction: 290°WNW
Pressure: 29.99"   Gusts: 31mph
Location:  33.0336°N, 94.7384°W
Report Text: KOSA 252215Z AUTO 29019G27KT 10SM CLR 17/M02 A2999 RMK AO1 T01661021
Loading
Personal Weather Stations






























Interactive Weather Map New forecast layout! Learn more

10-Day Weather Forecast

Advertisements
Track Severe Weather on mobile